Time;durP1;ratioP1;P1;durP2;ratioP2;P2;SDS_P1;SDS_P2;PMS_P1;PMS_P2;Temp;Humidity;BMP_temperature;BMP_pressure;BME280_temperature;BME280_humidity;BME280_pressure;Samples;Min_cycle;Max_cycle;Signal;HPM_P1;HPM_P2
2023/09/26 00:01:09;;;;;;;5.05;2.20;;;13.30;64.20;;;;;;5065102;28;20036;-62
2023/09/26 00:03:35;;;;;;;2.03;1.90;;;13.30;64.50;;;;;;5061228;28;20440;-61
2023/09/26 00:06:02;;;;;;;4.32;1.92;;;13.30;65.30;;;;;;5061642;28;20021;-62
2023/09/26 00:08:27;;;;;;;6.53;2.38;;;13.30;64.70;;;;;;5065846;28;20013;-61
2023/09/26 00:10:53;;;;;;;3.53;2.13;;;13.20;64.60;;;;;;5068644;28;20104;-62
2023/09/26 00:13:19;;;;;;;2.97;2.10;;;13.20;64.80;;;;;;5057922;28;20555;-61
2023/09/26 00:15:45;;;;;;;3.05;2.17;;;13.20;65.00;;;;;;5056383;28;20570;-61
2023/09/26 00:18:10;;;;;;;4.47;2.35;;;13.20;65.20;;;;;;5061531;28;20029;-61
2023/09/26 00:20:39;;;;;;;3.75;2.00;;;13.20;65.30;;;;;;5064851;28;20399;-61
2023/09/26 00:23:06;;;;;;;3.30;2.38;;;13.20;65.60;;;;;;5068147;28;20043;-63
2023/09/26 00:25:32;;;;;;;4.22;2.50;;;13.20;65.60;;;;;;5065121;28;20024;-62
2023/09/26 00:27:58;;;;;;;2.60;2.08;;;13.20;65.70;;;;;;5065295;28;20037;-61
2023/09/26 00:30:27;;;;;;;4.82;2.50;;;13.10;66.40;;;;;;5059000;28;20033;-62
2023/09/26 00:32:53;;;;;;;4.78;2.33;;;13.10;65.80;;;;;;5064760;28;20493;-62
2023/09/26 00:35:19;;;;;;;2.80;2.20;;;13.10;65.80;;;;;;5063161;28;20060;-61
2023/09/26 00:37:49;;;;;;;3.60;2.22;;;13.10;65.90;;;;;;5071973;28;20020;-61
2023/09/26 00:40:16;;;;;;;5.15;2.50;;;13.10;66.30;;;;;;5066234;28;20058;-62
2023/09/26 00:42:45;;;;;;;2.85;2.28;;;13.10;66.10;;;;;;5066233;28;20054;-61
2023/09/26 00:45:11;;;;;;;3.30;2.20;;;13.00;66.30;;;;;;4978842;28;20060;-61
2023/09/26 00:47:39;;;;;;;4.05;2.38;;;13.00;66.20;;;;;;5070439;28;20114;-61
2023/09/26 00:50:12;;;;;;;2.95;2.25;;;13.00;66.30;;;;;;5060064;28;20027;-61
2023/09/26 00:52:51;;;;;;;4.28;2.28;;;13.00;66.40;;;;;;5066411;28;20047;-62
2023/09/26 00:55:20;;;;;;;6.78;2.35;;;13.00;66.40;;;;;;5064016;28;20106;-61
2023/09/26 00:57:46;;;;;;;5.55;2.00;;;13.00;66.40;;;;;;5070424;28;20025;-61
2023/09/26 01:00:15;;;;;;;8.02;2.13;;;13.00;66.30;;;;;;5064533;28;20039;-61
2023/09/26 01:02:41;;;;;;;5.43;2.17;;;12.90;66.20;;;;;;5072471;28;20036;-62
2023/09/26 01:05:08;;;;;;;2.90;2.17;;;12.90;66.10;;;;;;5062254;28;20033;-62
2023/09/26 01:07:35;;;;;;;3.65;2.38;;;12.90;66.10;;;;;;5067710;28;20033;-61
2023/09/26 01:10:09;;;;;;;2.78;2.15;;;12.90;66.30;;;;;;5068454;28;20025;-61
2023/09/26 01:12:39;;;;;;;3.70;2.28;;;12.90;66.30;;;;;;5065492;28;20044;-61
2023/09/26 01:15:06;;;;;;;2.75;2.00;;;12.90;66.10;;;;;;5065789;28;20060;-62
2023/09/26 01:17:32;;;;;;;4.20;1.90;;;12.80;65.90;;;;;;5064625;28;20588;-61
2023/09/26 01:19:59;;;;;;;3.78;2.17;;;12.80;65.80;;;;;;5059480;28;20491;-61
2023/09/26 01:22:27;;;;;;;2.92;2.10;;;12.80;65.60;;;;;;5067115;28;20029;-61
2023/09/26 01:24:55;;;;;;;4.15;1.95;;;12.80;65.70;;;;;;5057121;28;20159;-61
2023/09/26 01:27:21;;;;;;;2.90;1.95;;;12.80;65.90;;;;;;5064774;28;20050;-61
2023/09/26 01:29:47;;;;;;;2.47;2.10;;;12.70;65.90;;;;;;5071517;28;20080;-60
2023/09/26 01:32:13;;;;;;;2.80;2.13;;;12.70;65.80;;;;;;5061099;28;20498;-61
2023/09/26 01:34:39;;;;;;;3.85;2.10;;;12.70;65.70;;;;;;5065658;28;20029;-61
2023/09/26 01:37:05;;;;;;;2.25;2.05;;;12.70;65.60;;;;;;5060653;28;20020;-61
2023/09/26 01:39:31;;;;;;;3.10;2.30;;;12.60;65.50;;;;;;5066716;28;20028;-60
2023/09/26 01:41:56;;;;;;;5.18;2.25;;;12.60;65.50;;;;;;5068387;28;20034;-61
2023/09/26 01:44:22;;;;;;;3.63;1.92;;;12.60;65.70;;;;;;5064118;28;20029;-61
2023/09/26 01:46:48;;;;;;;2.00;1.80;;;12.60;66.00;;;;;;4979934;28;20036;-61
2023/09/26 01:49:15;;;;;;;3.80;2.28;;;12.60;66.10;;;;;;5060457;28;20036;-60
2023/09/26 01:51:41;;;;;;;3.28;2.17;;;12.50;66.00;;;;;;5063753;28;20118;-61
2023/09/26 01:54:06;;;;;;;2.10;1.95;;;12.50;66.00;;;;;;5069809;28;20060;-61
2023/09/26 01:56:32;;;;;;;2.25;2.05;;;12.50;66.10;;;;;;5065045;28;20024;-61
2023/09/26 01:58:58;;;;;;;4.63;2.30;;;12.50;66.20;;;;;;5061832;28;20032;-61
2023/09/26 02:01:24;;;;;;;3.92;2.30;;;12.40;66.20;;;;;;5063238;28;20048;-61
2023/09/26 02:03:50;;;;;;;3.20;2.30;;;12.40;66.30;;;;;;5059630;28;20021;-61
2023/09/26 02:06:15;;;;;;;4.70;2.53;;;12.40;66.30;;;;;;5069260;28;20108;-61
2023/09/26 02:08:41;;;;;;;3.22;2.30;;;12.40;66.30;;;;;;5071894;28;20017;-62
2023/09/26 02:11:07;;;;;;;2.88;1.85;;;12.30;66.30;;;;;;5072511;28;20382;-62
2023/09/26 02:13:32;;;;;;;7.22;2.55;;;12.30;66.10;;;;;;5069842;28;20480;-61
2023/09/26 02:15:58;;;;;;;3.45;2.30;;;12.30;66.00;;;;;;5065065;28;20420;-62
2023/09/26 02:18:24;;;;;;;2.83;2.30;;;12.30;66.20;;;;;;5070982;28;20040;-60
2023/09/26 02:20:50;;;;;;;2.67;2.13;;;12.20;66.20;;;;;;5067487;28;20484;-60
2023/09/26 02:23:16;;;;;;;3.00;2.40;;;12.20;66.30;;;;;;5069765;28;20035;-62
2023/09/26 02:25:52;;;;;;;2.88;2.50;;;12.20;66.30;;;;;;5069346;28;20057;-61
2023/09/26 02:28:19;;;;;;;2.95;2.60;;;12.20;66.50;;;;;;5065220;28;20043;-61
2023/09/26 02:30:45;;;;;;;8.63;3.00;;;12.10;66.10;;;;;;5072026;28;20024;-61
2023/09/26 02:33:11;;;;;;;3.83;2.50;;;12.10;66.10;;;;;;5074490;28;20034;-63
2023/09/26 02:35:37;;;;;;;3.67;2.78;;;12.10;66.10;;;;;;5072039;28;20056;-62
2023/09/26 02:38:03;;;;;;;3.00;2.70;;;12.10;66.20;;;;;;5073565;28;20109;-60
2023/09/26 02:40:28;;;;;;;3.40;2.72;;;12.00;66.10;;;;;;5060579;28;20024;-61
2023/09/26 02:42:54;;;;;;;2.78;2.50;;;12.00;66.20;;;;;;5063587;28;20505;-61
2023/09/26 02:45:20;;;;;;;4.43;2.97;;;12.00;66.40;;;;;;5006620;28;21037;-60
2023/09/26 02:47:46;;;;;;;5.15;2.90;;;12.00;66.40;;;;;;5075115;28;20107;-61
2023/09/26 02:50:12;;;;;;;4.70;3.08;;;11.90;66.30;;;;;;5063076;28;20032;-61
2023/09/26 02:52:41;;;;;;;10.00;3.60;;;11.90;66.30;;;;;;5070006;28;20479;-61
2023/09/26 02:55:07;;;;;;;8.07;3.72;;;11.90;66.40;;;;;;5071485;28;20497;-61
2023/09/26 02:57:34;;;;;;;4.18;3.20;;;11.90;66.30;;;;;;5070555;28;20741;-60
2023/09/26 03:00:00;;;;;;;4.07;3.17;;;11.80;66.30;;;;;;5070641;28;20020;-61
2023/09/26 03:02:25;;;;;;;5.78;3.00;;;11.80;66.30;;;;;;5066237;28;20123;-62
2023/09/26 03:04:51;;;;;;;3.25;2.80;;;11.80;66.40;;;;;;5068963;28;20040;-60
2023/09/26 03:07:17;;;;;;;5.60;3.15;;;11.80;66.40;;;;;;5066443;28;20028;-61
2023/09/26 03:09:45;;;;;;;3.33;2.88;;;11.80;66.60;;;;;;5068297;28;20024;-60
2023/09/26 03:12:10;;;;;;;5.60;2.90;;;11.70;66.80;;;;;;5070951;28;20486;-61
2023/09/26 03:14:36;;;;;;;3.65;2.88;;;11.70;66.80;;;;;;5059077;28;20067;-61
2023/09/26 03:17:05;;;;;;;5.25;2.60;;;11.70;66.80;;;;;;5068354;28;20107;-62
2023/09/26 03:19:31;;;;;;;3.60;2.33;;;11.70;66.80;;;;;;5066517;28;20046;-61
2023/09/26 03:21:56;;;;;;;3.58;2.60;;;11.70;66.80;;;;;;5071856;28;20036;-60
2023/09/26 03:24:23;;;;;;;3.13;2.50;;;11.70;66.90;;;;;;5070707;28;20071;-61
2023/09/26 03:26:49;;;;;;;2.97;2.40;;;11.70;66.90;;;;;;5072042;28;20452;-61
2023/09/26 03:29:14;;;;;;;4.68;2.72;;;11.70;66.90;;;;;;5069102;28;20029;-61
2023/09/26 03:31:41;;;;;;;5.43;2.97;;;11.70;66.90;;;;;;5067192;28;20024;-62
2023/09/26 03:34:08;;;;;;;6.82;2.75;;;11.60;67.00;;;;;;5067890;28;20791;-60
2023/09/26 03:36:36;;;;;;;9.85;3.33;;;11.60;67.10;;;;;;5066269;28;20410;-61
2023/09/26 03:39:03;;;;;;;6.10;2.70;;;11.60;67.20;;;;;;5069594;28;20020;-61
2023/09/26 03:41:29;;;;;;;2.75;2.30;;;11.60;67.30;;;;;;5065570;28;20090;-61
2023/09/26 03:43:55;;;;;;;3.38;2.60;;;11.60;67.40;;;;;;5062382;28;20020;-61
2023/09/26 03:46:21;;;;;;;3.45;2.70;;;11.60;67.40;;;;;;5069807;28;20030;-61
2023/09/26 03:48:48;;;;;;;3.85;2.90;;;11.60;67.50;;;;;;5059589;28;20028;-61
2023/09/26 03:51:15;;;;;;;3.22;2.88;;;11.60;67.60;;;;;;5062333;28;20100;-61
2023/09/26 03:53:42;;;;;;;3.88;2.80;;;11.50;67.50;;;;;;5062858;28;20482;-61
2023/09/26 03:56:08;;;;;;;3.70;2.95;;;11.50;67.70;;;;;;5061124;28;20082;-61
2023/09/26 03:58:35;;;;;;;6.65;2.90;;;11.50;67.50;;;;;;5068423;28;20024;-60
2023/09/26 04:01:27;;;;;;;7.35;3.15;;;11.50;67.70;;;;;;5064076;28;20033;-62
2023/09/26 04:03:53;;;;;;;6.50;3.42;;;11.50;68.60;;;;;;5056621;28;20040;-61
2023/09/26 04:06:18;;;;;;;4.13;3.22;;;11.50;67.50;;;;;;5070295;28;20028;-60
2023/09/26 04:08:45;;;;;;;4.97;3.05;;;11.50;67.40;;;;;;5059280;28;20048;-61
2023/09/26 04:11:15;;;;;;;7.45;3.53;;;11.40;67.30;;;;;;5060939;28;20078;-61
2023/09/26 04:13:42;;;;;;;5.93;3.40;;;11.50;67.40;;;;;;5060235;28;20109;-61
2023/09/26 04:16:09;;;;;;;4.55;3.05;;;11.40;67.20;;;;;;5055599;28;20714;-61
2023/09/26 04:18:34;;;;;;;3.90;2.92;;;11.40;67.20;;;;;;5056527;28;20024;-61
2023/09/26 04:21:06;;;;;;;4.85;3.28;;;11.40;67.30;;;;;;5062367;28;20082;-61
2023/09/26 04:23:31;;;;;;;4.20;3.10;;;11.30;67.50;;;;;;5065440;28;20024;-61
2023/09/26 04:25:57;;;;;;;4.80;3.22;;;11.30;67.40;;;;;;5070769;28;20363;-61
2023/09/26 04:28:23;;;;;;;5.32;3.30;;;11.30;67.60;;;;;;5066529;28;20094;-61
2023/09/26 04:30:49;;;;;;;6.00;2.97;;;11.30;67.60;;;;;;5054383;28;20032;-61
2023/09/26 04:33:16;;;;;;;5.75;3.38;;;11.30;67.60;;;;;;5067444;28;20025;-60
2023/09/26 04:35:41;;;;;;;4.20;3.08;;;11.30;67.70;;;;;;5067033;28;20031;-60
2023/09/26 04:38:07;;;;;;;4.70;3.40;;;11.30;67.80;;;;;;5067351;28;20457;-60
2023/09/26 04:40:36;;;;;;;3.95;3.13;;;11.20;67.80;;;;;;5068997;28;20025;-60
2023/09/26 04:43:04;;;;;;;4.68;3.38;;;11.20;68.10;;;;;;5064781;28;20041;-62
2023/09/26 04:45:33;;;;;;;4.85;3.70;;;11.20;68.10;;;;;;5056125;28;20028;-61
2023/09/26 04:48:00;;;;;;;4.07;3.42;;;11.20;68.20;;;;;;5060457;28;20766;-60
2023/09/26 04:50:28;;;;;;;5.43;3.42;;;11.20;68.10;;;;;;5064162;28;20530;-61
2023/09/26 04:52:54;;;;;;;3.80;3.45;;;11.20;68.30;;;;;;5065706;28;20561;-61
2023/09/26 04:55:20;;;;;;;4.03;3.63;;;11.20;68.20;;;;;;5069022;28;20032;-60
2023/09/26 04:57:46;;;;;;;4.63;3.60;;;11.20;68.20;;;;;;5068595;28;20364;-61
2023/09/26 05:00:17;;;;;;;4.07;3.50;;;11.20;68.20;;;;;;5066901;28;20035;-60
2023/09/26 05:02:43;;;;;;;6.97;3.40;;;11.20;68.20;;;;;;5065760;28;20037;-61
2023/09/26 05:05:10;;;;;;;4.95;3.88;;;11.10;68.10;;;;;;5059569;28;20027;-61
2023/09/26 05:07:36;;;;;;;4.25;3.42;;;11.10;68.20;;;;;;5058989;28;20536;-62
2023/09/26 05:10:03;;;;;;;5.00;3.67;;;11.10;68.30;;;;;;5068379;28;20020;-61
2023/09/26 05:12:29;;;;;;;14.65;3.67;;;11.10;68.30;;;;;;5064869;28;20436;-61
2023/09/26 05:14:56;;;;;;;7.70;4.25;;;11.10;68.40;;;;;;5060154;28;20103;-60
2023/09/26 05:17:24;;;;;;;6.18;3.83;;;11.10;68.50;;;;;;5058633;28;20016;-61
2023/09/26 05:19:51;;;;;;;9.18;3.90;;;11.10;68.40;;;;;;5059833;28;20048;-60
2023/09/26 05:22:17;;;;;;;8.13;4.38;;;11.10;68.20;;;;;;5068443;28;20032;-61
2023/09/26 05:24:43;;;;;;;7.25;3.63;;;11.10;68.30;;;;;;5065448;28;20027;-60
2023/09/26 05:27:09;;;;;;;9.75;3.65;;;11.10;68.20;;;;;;5069933;28;20024;-60
2023/09/26 05:29:35;;;;;;;5.10;3.95;;;11.10;68.20;;;;;;5068654;28;20028;-62
2023/09/26 05:32:01;;;;;;;5.95;3.80;;;11.10;68.30;;;;;;5067310;28;20139;-60
2023/09/26 05:34:28;;;;;;;6.47;4.18;;;11.00;68.30;;;;;;5070740;28;20027;-60
2023/09/26 05:36:53;;;;;;;10.05;4.47;;;11.10;68.40;;;;;;5073430;28;20082;-61
2023/09/26 05:39:19;;;;;;;5.35;4.03;;;11.10;68.40;;;;;;5071569;28;20044;-61
2023/09/26 05:41:45;;;;;;;6.07;4.25;;;11.10;68.50;;;;;;5070247;28;20424;-61
2023/09/26 05:44:12;;;;;;;5.90;4.20;;;11.10;68.50;;;;;;5066051;28;20705;-60
2023/09/26 05:46:37;;;;;;;5.80;4.30;;;11.10;68.60;;;;;;4962835;28;20117;-60
2023/09/26 05:49:03;;;;;;;5.93;4.10;;;11.10;68.70;;;;;;5067724;28;20361;-61
2023/09/26 05:51:29;;;;;;;5.03;4.10;;;11.10;68.80;;;;;;5070618;28;20037;-61
2023/09/26 05:53:54;;;;;;;6.80;4.20;;;11.10;68.90;;;;;;5072514;28;20028;-62
2023/09/26 05:56:20;;;;;;;5.57;4.00;;;11.20;69.10;;;;;;5071497;28;20013;-61
2023/09/26 05:58:46;;;;;;;7.00;3.53;;;11.20;69.10;;;;;;5058017;28;20025;-61
2023/09/26 06:01:12;;;;;;;5.32;3.70;;;11.20;69.20;;;;;;5061386;28;20037;-61
2023/09/26 06:03:39;;;;;;;9.10;4.35;;;11.30;69.30;;;;;;5064151;28;20360;-61
2023/09/26 06:06:05;;;;;;;5.65;4.18;;;11.40;69.50;;;;;;5061367;28;20074;-62
2023/09/26 06:08:31;;;;;;;7.75;4.97;;;11.40;69.40;;;;;;5060072;28;20453;-62
2023/09/26 06:10:57;;;;;;;5.60;4.30;;;11.50;69.50;;;;;;5067807;28;20028;-61
2023/09/26 06:13:22;;;;;;;9.35;3.72;;;11.60;69.40;;;;;;5057420;28;20550;-61
2023/09/26 06:15:48;;;;;;;6.38;4.05;;;11.60;69.30;;;;;;5055345;28;20025;-61
2023/09/26 06:18:14;;;;;;;5.70;4.22;;;11.70;69.30;;;;;;5044635;28;20036;-62
2023/09/26 06:20:44;;;;;;;8.63;4.38;;;11.80;69.20;;;;;;5062091;28;20538;-60
2023/09/26 06:23:09;;;;;;;6.63;3.95;;;11.80;69.20;;;;;;5064939;28;20068;-60
2023/09/26 06:25:35;;;;;;;7.45;3.92;;;11.90;69.20;;;;;;5069257;28;20063;-61
2023/09/26 06:28:01;;;;;;;5.85;3.85;;;11.90;69.10;;;;;;5054680;28;20048;-60
2023/09/26 06:30:26;;;;;;;8.30;3.78;;;12.00;69.30;;;;;;5064774;28;20029;-60
2023/09/26 06:32:52;;;;;;;6.03;4.57;;;12.10;69.40;;;;;;5053304;28;20032;-61
2023/09/26 06:35:18;;;;;;;9.40;4.88;;;12.20;69.40;;;;;;5063104;28;20024;-63
2023/09/26 06:37:43;;;;;;;8.93;5.35;;;12.30;69.30;;;;;;5060496;28;20109;-61
2023/09/26 06:40:10;;;;;;;7.88;5.55;;;12.40;69.20;;;;;;5056601;28;20056;-60
2023/09/26 06:42:36;;;;;;;9.35;6.55;;;12.50;69.10;;;;;;5049359;28;20331;-60
2023/09/26 06:45:02;;;;;;;8.50;5.85;;;12.60;69.00;;;;;;5048987;28;20078;-60
2023/09/26 06:47:28;;;;;;;10.40;6.43;;;12.70;69.00;;;;;;5053984;28;20040;-61
2023/09/26 06:49:55;;;;;;;9.73;6.38;;;12.80;69.00;;;;;;5052763;28;20052;-60
2023/09/26 06:52:24;;;;;;;6.90;5.60;;;12.90;68.90;;;;;;5061820;28;20028;-61
2023/09/26 06:54:50;;;;;;;11.95;5.47;;;13.00;69.00;;;;;;5062872;28;20027;-61
2023/09/26 06:57:20;;;;;;;8.98;4.65;;;13.10;68.90;;;;;;5049108;28;20475;-60
2023/09/26 06:59:49;;;;;;;6.55;4.57;;;13.30;69.00;;;;;;5065285;28;20111;-61
2023/09/26 07:02:16;;;;;;;8.30;4.60;;;13.40;69.00;;;;;;5059656;28;20660;-61
2023/09/26 07:04:41;;;;;;;6.88;4.07;;;13.50;68.60;;;;;;5062384;28;20025;-61
2023/09/26 07:07:07;;;;;;;11.50;4.15;;;13.60;68.50;;;;;;5069062;28;20492;-61
2023/09/26 07:09:32;;;;;;;6.28;3.63;;;13.70;68.40;;;;;;5059100;28;20032;-61
2023/09/26 07:11:59;;;;;;;12.13;4.30;;;13.80;68.50;;;;;;5069009;28;20399;-61
2023/09/26 07:14:24;;;;;;;13.27;4.32;;;13.90;68.50;;;;;;5066019;28;20077;-61
2023/09/26 07:16:51;;;;;;;11.88;3.85;;;14.00;68.40;;;;;;5058842;28;20446;-61
2023/09/26 07:19:17;;;;;;;9.18;3.78;;;14.20;68.40;;;;;;5063770;28;20159;-62
2023/09/26 07:21:43;;;;;;;17.92;4.75;;;14.30;68.20;;;;;;5063573;28;20114;-62
2023/09/26 07:24:09;;;;;;;15.73;4.63;;;14.40;67.90;;;;;;5068441;28;21245;-61
2023/09/26 07:26:35;;;;;;;10.95;4.25;;;14.60;67.80;;;;;;5058027;28;20026;-62
2023/09/26 07:29:00;;;;;;;13.88;4.20;;;14.70;67.60;;;;;;5058957;28;20550;-62
2023/09/26 07:31:26;;;;;;;9.48;4.63;;;14.80;67.50;;;;;;5060745;28;20077;-62
2023/09/26 07:33:52;;;;;;;11.70;4.55;;;14.90;67.40;;;;;;5064469;28;20032;-61
2023/09/26 07:36:18;;;;;;;11.40;4.22;;;15.10;67.40;;;;;;5067390;28;20585;-61
2023/09/26 07:38:45;;;;;;;10.40;4.07;;;15.20;67.30;;;;;;5071503;28;20036;-61
2023/09/26 07:41:11;;;;;;;9.25;4.40;;;15.30;67.30;;;;;;5070762;28;20036;-63
2023/09/26 07:43:36;;;;;;;6.97;4.05;;;15.50;67.30;;;;;;5069322;28;20505;-61
2023/09/26 07:46:06;;;;;;;11.00;4.93;;;15.60;67.00;;;;;;4984396;28;20069;-61
2023/09/26 07:48:33;;;;;;;9.63;5.20;;;15.80;66.90;;;;;;5069502;28;20167;-62
2023/09/26 07:50:59;;;;;;;16.88;8.45;;;15.90;66.80;;;;;;5068007;28;20016;-62
2023/09/26 07:53:24;;;;;;;13.38;8.38;;;16.00;66.90;;;;;;5065031;28;20043;-62
2023/09/26 07:55:50;;;;;;;14.35;9.43;;;16.20;66.90;;;;;;5061227;28;20048;-62
2023/09/26 07:58:16;;;;;;;17.83;10.02;;;16.30;66.90;;;;;;5065179;28;20037;-61
2023/09/26 08:00:42;;;;;;;16.17;9.02;;;16.50;67.10;;;;;;5064355;28;20439;-62
2023/09/26 08:03:08;;;;;;;17.67;10.38;;;16.60;66.90;;;;;;5061066;28;20039;-62
2023/09/26 08:05:34;;;;;;;19.60;10.98;;;16.80;67.00;;;;;;5059191;28;20065;-61
2023/09/26 08:08:04;;;;;;;17.08;10.50;;;16.90;66.40;;;;;;5060724;28;20032;-61
2023/09/26 08:10:30;;;;;;;18.13;11.40;;;17.00;66.20;;;;;;5055003;28;20059;-63
2023/09/26 08:12:56;;;;;;;24.98;12.18;;;17.20;66.20;;;;;;5070462;28;20665;-61
2023/09/26 08:15:21;;;;;;;20.02;12.27;;;17.30;66.30;;;;;;5061758;28;20103;-61
2023/09/26 08:17:47;;;;;;;20.73;13.35;;;17.40;66.40;;;;;;5064382;28;20154;-61
2023/09/26 08:20:14;;;;;;;20.50;11.75;;;17.60;66.40;;;;;;5064540;28;20044;-61
2023/09/26 08:22:39;;;;;;;23.15;10.82;;;17.70;66.20;;;;;;5063083;28;20033;-62
2023/09/26 08:25:07;;;;;;;20.75;10.70;;;17.90;65.90;;;;;;5060438;28;20021;-62
2023/09/26 08:27:33;;;;;;;17.15;10.98;;;18.00;65.60;;;;;;5054826;28;20160;-62
2023/09/26 08:29:59;;;;;;;16.05;10.73;;;18.20;65.40;;;;;;5068855;28;20509;-61
2023/09/26 08:32:26;;;;;;;22.30;13.18;;;18.30;65.20;;;;;;5049877;28;20020;-60
2023/09/26 08:34:51;;;;;;;21.80;13.13;;;18.50;64.90;;;;;;5061599;28;20193;-62
2023/09/26 08:37:17;;;;;;;23.63;12.90;;;18.70;64.70;;;;;;5065441;28;20119;-61
2023/09/26 08:39:47;;;;;;;27.63;12.73;;;18.80;64.30;;;;;;5055176;28;20158;-62
2023/09/26 08:42:32;;;;;;;27.58;14.88;;;18.90;64.10;;;;;;5055742;28;20112;-61
2023/09/26 08:44:58;;;;;;;23.17;13.02;;;19.00;63.90;;;;;;5055207;28;20373;-62
2023/09/26 08:47:24;;;;;;;19.80;12.05;;;19.20;63.80;;;;;;5063138;28;20077;-60
2023/09/26 08:49:57;;;;;;;18.15;11.80;;;19.30;63.70;;;;;;5070454;28;20444;-61
2023/09/26 08:52:23;;;;;;;23.98;12.90;;;19.40;63.10;;;;;;5067989;28;20056;-61
2023/09/26 08:54:50;;;;;;;22.92;12.13;;;19.50;63.30;;;;;;5068732;28;20070;-62
2023/09/26 08:57:19;;;;;;;15.63;10.63;;;19.70;63.00;;;;;;5066847;28;20024;-61
2023/09/26 08:59:49;;;;;;;15.30;9.75;;;19.80;62.60;;;;;;5065697;28;20081;-61
2023/09/26 09:02:15;;;;;;;16.65;9.52;;;19.90;62.40;;;;;;5061912;28;20479;-61
2023/09/26 09:04:42;;;;;;;15.63;8.50;;;20.00;62.30;;;;;;5061244;28;20044;-62
2023/09/26 09:07:09;;;;;;;12.65;8.13;;;20.10;62.20;;;;;;5062332;28;20031;-60
2023/09/26 09:09:34;;;;;;;13.35;8.43;;;20.30;61.80;;;;;;5063189;28;20035;-62
2023/09/26 09:12:00;;;;;;;14.80;8.90;;;20.40;61.60;;;;;;5064456;28;20024;-62
2023/09/26 09:14:32;;;;;;;15.40;8.65;;;20.50;61.40;;;;;;5066100;28;20087;-61
2023/09/26 09:16:58;;;;;;;16.27;7.75;;;20.60;60.80;;;;;;5063310;28;20033;-61
2023/09/26 09:19:51;;;;;;;14.57;8.18;;;20.70;61.00;;;;;;5056797;28;20025;-62
2023/09/26 09:22:19;;;;;;;11.70;7.57;;;20.80;60.20;;;;;;5054707;28;20139;-61
2023/09/26 09:24:53;;;;;;;13.50;7.80;;;20.90;60.60;;;;;;5064357;28;20074;-61
2023/09/26 09:27:30;;;;;;;12.35;6.57;;;21.10;60.30;;;;;;5058829;28;20027;-62
2023/09/26 09:30:07;;;;;;;10.38;6.60;;;21.20;60.10;;;;;;5052039;28;20539;-61
2023/09/26 09:32:36;;;;;;;10.13;7.60;;;21.30;59.70;;;;;;5057028;28;20056;-62
2023/09/26 09:35:03;;;;;;;10.77;7.63;;;21.40;59.90;;;;;;5056454;28;20025;-63
2023/09/26 09:37:29;;;;;;;16.80;8.25;;;21.60;59.70;;;;;;5061349;28;20063;-61
2023/09/26 09:39:55;;;;;;;16.13;7.75;;;21.70;59.60;;;;;;5066791;28;20055;-61
2023/09/26 09:42:22;;;;;;;12.73;8.27;;;21.80;59.30;;;;;;5054916;28;20047;-60
2023/09/26 09:44:47;;;;;;;8.98;7.45;;;21.90;59.00;;;;;;5053910;28;20020;-61
2023/09/26 09:47:22;;;;;;;8.82;7.40;;;22.00;59.10;;;;;;5057018;28;20037;-63
2023/09/26 09:49:49;;;;;;;11.77;7.03;;;22.10;58.70;;;;;;5065048;28;20392;-62
2023/09/26 09:52:18;;;;;;;8.98;6.40;;;22.20;58.70;;;;;;5060776;28;20063;-61
2023/09/26 09:54:45;;;;;;;8.50;6.03;;;22.20;58.40;;;;;;5059977;28;20071;-61
2023/09/26 09:57:17;;;;;;;8.13;5.88;;;22.40;58.20;;;;;;5055546;28;20131;-62
2023/09/26 09:59:45;;;;;;;6.63;5.47;;;22.40;57.80;;;;;;5056052;28;20029;-61
2023/09/26 10:02:15;;;;;;;6.05;4.85;;;22.50;57.70;;;;;;5052216;28;20048;-61
2023/09/26 10:04:47;;;;;;;5.38;4.60;;;22.60;57.00;;;;;;5049968;28;20017;-62
2023/09/26 10:07:15;;;;;;;8.35;5.28;;;22.60;57.10;;;;;;5060609;28;20036;-62
2023/09/26 10:09:42;;;;;;;7.80;5.63;;;22.70;56.90;;;;;;5066793;28;20515;-61
2023/09/26 10:12:10;;;;;;;8.80;6.20;;;22.70;56.90;;;;;;5057300;28;20195;-61
2023/09/26 10:14:35;;;;;;;6.85;4.93;;;22.80;56.70;;;;;;5062302;28;20689;-61
2023/09/26 10:17:04;;;;;;;10.10;5.30;;;22.80;56.90;;;;;;5060116;28;20025;-62
2023/09/26 10:19:31;;;;;;;10.98;5.85;;;22.90;56.60;;;;;;5055775;28;20112;-61
2023/09/26 10:22:17;;;;;;;10.70;5.32;;;23.00;56.30;;;;;;5053507;28;20506;-62
2023/09/26 10:24:51;;;;;;;7.60;5.43;;;23.10;55.40;;;;;;5034644;28;21008;-60
2023/09/26 10:27:31;;;;;;;11.63;6.90;;;23.10;55.80;;;;;;5036027;28;20028;-63
2023/09/26 10:29:57;;;;;;;9.20;6.40;;;23.20;54.90;;;;;;5036605;28;20021;-61
2023/09/26 10:32:34;;;;;;;7.75;5.10;;;23.20;55.50;;;;;;5036574;28;20083;-61
2023/09/26 10:35:02;;;;;;;7.47;5.40;;;23.30;55.20;;;;;;5047969;28;20043;-61
2023/09/26 10:37:29;;;;;;;7.10;5.07;;;23.20;55.20;;;;;;5070163;28;20024;-63
2023/09/26 10:39:54;;;;;;;6.53;5.68;;;23.30;55.40;;;;;;5066454;28;20020;-61
2023/09/26 10:42:24;;;;;;;6.85;5.13;;;23.30;55.50;;;;;;5062338;28;20037;-61
2023/09/26 10:44:50;;;;;;;6.45;4.80;;;23.40;55.30;;;;;;4984286;28;20477;-62
2023/09/26 10:47:22;;;;;;;6.78;5.07;;;23.40;55.60;;;;;;5061300;28;20020;-61
2023/09/26 10:49:48;;;;;;;7.65;5.50;;;23.50;55.30;;;;;;5067045;28;20024;-61
2023/09/26 10:52:14;;;;;;;7.05;5.07;;;23.60;55.30;;;;;;5061316;28;20035;-61
2023/09/26 10:54:41;;;;;;;8.82;4.72;;;23.70;55.20;;;;;;5064316;28;20110;-62
2023/09/26 10:57:08;;;;;;;5.43;4.70;;;23.80;54.80;;;;;;5059383;28;20027;-61
2023/09/26 10:59:34;;;;;;;7.32;4.70;;;23.80;54.90;;;;;;5064290;28;20025;-62
2023/09/26 11:02:03;;;;;;;9.00;5.75;;;23.90;55.40;;;;;;5061332;28;20024;-61
2023/09/26 11:04:31;;;;;;;7.93;5.43;;;24.00;54.80;;;;;;5060237;28;20028;-61
2023/09/26 11:06:57;;;;;;;6.88;4.97;;;24.00;54.50;;;;;;5063022;28;20025;-62
2023/09/26 11:09:24;;;;;;;8.65;5.00;;;24.10;54.10;;;;;;5057136;28;20041;-61
2023/09/26 11:11:50;;;;;;;7.82;5.60;;;24.10;54.20;;;;;;5058937;28;20032;-63
2023/09/26 11:14:16;;;;;;;7.75;4.95;;;24.10;54.40;;;;;;5066115;28;20332;-61
2023/09/26 11:16:42;;;;;;;8.35;5.30;;;24.20;53.90;;;;;;5052591;28;20054;-61
2023/09/26 11:19:11;;;;;;;14.65;6.13;;;24.30;54.20;;;;;;5060978;28;20024;-61
2023/09/26 11:21:37;;;;;;;13.25;5.65;;;24.30;53.90;;;;;;5061245;28;20032;-61
2023/09/26 11:24:23;;;;;;;5.75;4.78;;;24.40;53.70;;;;;;5069897;28;20048;-62
2023/09/26 11:26:51;;;;;;;9.85;5.13;;;24.50;52.70;;;;;;5064826;28;20024;-62
2023/09/26 11:29:21;;;;;;;7.35;5.07;;;24.50;53.50;;;;;;5087537;28;20032;-62
2023/09/26 11:31:47;;;;;;;7.45;5.30;;;24.50;53.50;;;;;;5060225;28;20016;-62
2023/09/26 11:34:17;;;;;;;6.45;4.72;;;24.60;53.40;;;;;;5059049;28;20028;-61
2023/09/26 11:36:43;;;;;;;5.72;4.35;;;24.60;53.70;;;;;;5060719;28;20028;-61
2023/09/26 11:39:14;;;;;;;6.40;4.97;;;24.70;53.60;;;;;;5056079;28;20021;-62
2023/09/26 11:41:40;;;;;;;6.72;5.25;;;24.70;53.60;;;;;;5059089;28;20115;-63
2023/09/26 11:44:14;;;;;;;6.60;4.22;;;24.90;53.40;;;;;;5063911;28;20467;-62
2023/09/26 11:46:46;;;;;;;6.38;5.10;;;25.00;53.00;;;;;;5055858;28;20028;-61
2023/09/26 11:49:13;;;;;;;12.35;4.68;;;25.00;52.60;;;;;;5066757;28;20172;-63
2023/09/26 11:51:39;;;;;;;11.38;5.57;;;25.10;53.10;;;;;;5055893;28;20083;-61
2023/09/26 11:54:05;;;;;;;5.90;4.22;;;25.20;52.50;;;;;;5058237;28;20036;-61
2023/09/26 11:56:35;;;;;;;7.25;4.93;;;25.30;52.70;;;;;;5057912;28;20387;-62
2023/09/26 11:59:04;;;;;;;6.65;4.97;;;25.40;52.50;;;;;;5066800;28;20030;-62
2023/09/26 12:01:31;;;;;;;5.93;4.47;;;25.40;51.60;;;;;;5066314;28;20029;-63
2023/09/26 12:03:57;;;;;;;6.93;4.68;;;25.40;51.30;;;;;;5067356;28;20028;-62
2023/09/26 12:06:22;;;;;;;7.45;4.45;;;25.40;51.90;;;;;;5064553;28;20028;-62
2023/09/26 12:08:48;;;;;;;7.22;5.05;;;25.50;52.20;;;;;;5063846;28;20409;-62
2023/09/26 12:11:14;;;;;;;6.72;4.63;;;25.50;51.40;;;;;;5060431;28;20033;-62
2023/09/26 12:13:39;;;;;;;5.20;4.20;;;25.50;51.10;;;;;;5056167;28;20063;-61
2023/09/26 12:16:05;;;;;;;6.18;4.57;;;25.60;51.40;;;;;;5066272;28;20035;-63
2023/09/26 12:18:31;;;;;;;6.55;3.95;;;25.60;51.40;;;;;;5063668;28;20032;-61
2023/09/26 12:20:58;;;;;;;7.10;3.90;;;25.60;51.40;;;;;;5054916;28;20567;-61
2023/09/26 12:23:26;;;;;;;6.95;4.25;;;25.70;51.10;;;;;;5063455;28;20388;-62
2023/09/26 12:25:52;;;;;;;6.70;4.70;;;25.80;51.30;;;;;;5058330;28;20075;-62
2023/09/26 12:28:18;;;;;;;4.32;3.60;;;25.80;50.60;;;;;;5057291;28;20029;-62
2023/09/26 12:30:44;;;;;;;5.28;3.80;;;25.90;50.50;;;;;;5067405;28;20079;-62
2023/09/26 12:33:09;;;;;;;7.57;4.47;;;26.00;50.90;;;;;;5054566;28;20022;-64
2023/09/26 12:35:35;;;;;;;7.57;4.45;;;26.10;50.30;;;;;;5063416;28;20071;-62
2023/09/26 12:38:01;;;;;;;7.15;4.30;;;26.20;49.80;;;;;;5081618;27;20059;-63
2023/09/26 12:40:27;;;;;;;6.72;3.90;;;26.20;49.50;;;;;;5056580;28;20064;-62
2023/09/26 12:42:52;;;;;;;5.40;3.78;;;26.30;49.80;;;;;;5058840;28;20032;-63